Pleasant Plain, Ohio
Current Conditions -  °F | °C
As of 8:54 PM on Friday 24 Oct 2014 (Local Time) from KILN Reporting Station
Clear Clear  
Wind Chill: 52°   Ceiling: Unl
Heat Index: 52°   Visibility: 10mi
Dew Point: 37°   Wind: 0mph
Humidity: 57%   Direction: NA
Pressure: 30.04"   Gusts: NA
Location:  39.28°N, 84.11°W
Report Text: KILN 250054Z AUTO 00000KT 10SM CLR 11/03 A3004 RMK AO2 SLP185 T01110028
Loading
Personal Weather Stations






























Interactive Weather Map
Tropical Storm Tracking
New forecast layout! Learn more

10-Day Weather Forecast

Advertisements
Track Severe Weather on mobile